sensor_id;sensor_type;location;lat;lon;timestamp;temperature;humidity
71117;SHT31;58775;46.992;9.518;2023-11-21T00:01:29;6.49;97.23
71117;SHT31;58775;46.992;9.518;2023-11-21T00:03:30;6.42;97.37
71117;SHT31;58775;46.992;9.518;2023-11-21T00:05:31;6.28;98.28
71117;SHT31;58775;46.992;9.518;2023-11-21T00:07:32;6.30;97.93
71117;SHT31;58775;46.992;9.518;2023-11-21T00:09:33;6.26;98.05
71117;SHT31;58775;46.992;9.518;2023-11-21T00:11:35;6.30;98.21
71117;SHT31;58775;46.992;9.518;2023-11-21T00:13:36;6.28;97.79
71117;SHT31;58775;46.992;9.518;2023-11-21T00:15:37;6.25;98.12
71117;SHT31;58775;46.992;9.518;2023-11-21T00:17:38;6.19;98.36
71117;SHT31;58775;46.992;9.518;2023-11-21T00:19:39;6.19;98.18
71117;SHT31;58775;46.992;9.518;2023-11-21T00:21:40;6.19;98.39
71117;SHT31;58775;46.992;9.518;2023-11-21T00:23:41;6.16;97.97
71117;SHT31;58775;46.992;9.518;2023-11-21T00:25:42;6.11;98.67
71117;SHT31;58775;46.992;9.518;2023-11-21T00:27:42;6.14;98.65
71117;SHT31;58775;46.992;9.518;2023-11-21T00:29:43;6.08;98.19
71117;SHT31;58775;46.992;9.518;2023-11-21T00:31:44;6.15;98.60
71117;SHT31;58775;46.992;9.518;2023-11-21T00:33:46;6.08;98.08
71117;SHT31;58775;46.992;9.518;2023-11-21T00:35:47;6.04;98.87
71117;SHT31;58775;46.992;9.518;2023-11-21T00:37:48;6.06;98.66
71117;SHT31;58775;46.992;9.518;2023-11-21T00:39:50;5.98;98.80
71117;SHT31;58775;46.992;9.518;2023-11-21T00:41:52;6.12;98.11
71117;SHT31;58775;46.992;9.518;2023-11-21T00:43:53;6.08;98.07
71117;SHT31;58775;46.992;9.518;2023-11-21T00:45:56;6.06;98.43
71117;SHT31;58775;46.992;9.518;2023-11-21T00:47:56;5.94;99.09
71117;SHT31;58775;46.992;9.518;2023-11-21T00:49:58;5.98;99.07
71117;SHT31;58775;46.992;9.518;2023-11-21T00:52:00;6.01;99.16
71117;SHT31;58775;46.992;9.518;2023-11-21T00:54:01;6.02;99.16
71117;SHT31;58775;46.992;9.518;2023-11-21T00:56:02;6.05;99.14
71117;SHT31;58775;46.992;9.518;2023-11-21T00:58:03;6.05;98.29
71117;SHT31;58775;46.992;9.518;2023-11-21T01:00:05;6.09;98.38
71117;SHT31;58775;46.992;9.518;2023-11-21T01:02:17;5.90;97.75
71117;SHT31;58775;46.992;9.518;2023-11-21T01:04:18;5.88;97.81
71117;SHT31;58775;46.992;9.518;2023-11-21T01:06:19;5.81;99.41
71117;SHT31;58775;46.992;9.518;2023-11-21T01:08:20;5.71;99.52
71117;SHT31;58775;46.992;9.518;2023-11-21T01:10:22;5.73;99.62
71117;SHT31;58775;46.992;9.518;2023-11-21T01:12:22;5.81;99.40
71117;SHT31;58775;46.992;9.518;2023-11-21T01:14:25;5.85;99.06
71117;SHT31;58775;46.992;9.518;2023-11-21T01:16:27;5.90;98.60
71117;SHT31;58775;46.992;9.518;2023-11-21T01:18:28;5.84;98.44
71117;SHT31;58775;46.992;9.518;2023-11-21T01:20:29;5.85;98.17
71117;SHT31;58775;46.992;9.518;2023-11-21T01:22:30;5.83;98.15
71117;SHT31;58775;46.992;9.518;2023-11-21T01:24:31;5.84;98.35
71117;SHT31;58775;46.992;9.518;2023-11-21T01:26:32;5.70;97.34
71117;SHT31;58775;46.992;9.518;2023-11-21T01:28:33;5.61;98.64
71117;SHT31;58775;46.992;9.518;2023-11-21T01:30:34;5.60;98.09
71117;SHT31;58775;46.992;9.518;2023-11-21T01:32:36;5.60;98.49
71117;SHT31;58775;46.992;9.518;2023-11-21T01:34:37;5.61;98.31
71117;SHT31;58775;46.992;9.518;2023-11-21T01:36:38;5.65;98.32
71117;SHT31;58775;46.992;9.518;2023-11-21T01:38:39;5.67;97.89
71117;SHT31;58775;46.992;9.518;2023-11-21T01:40:40;5.63;97.86
71117;SHT31;58775;46.992;9.518;2023-11-21T01:42:42;5.55;97.28
71117;SHT31;58775;46.992;9.518;2023-11-21T01:44:44;5.50;97.63
71117;SHT31;58775;46.992;9.518;2023-11-21T01:46:45;5.42;98.38
71117;SHT31;58775;46.992;9.518;2023-11-21T01:48:48;5.42;98.79
71117;SHT31;58775;46.992;9.518;2023-11-21T01:50:50;5.50;98.54
71117;SHT31;58775;46.992;9.518;2023-11-21T01:52:51;5.54;97.99
71117;SHT31;58775;46.992;9.518;2023-11-21T01:54:53;5.57;98.05
71117;SHT31;58775;46.992;9.518;2023-11-21T01:56:54;5.50;98.11
71117;SHT31;58775;46.992;9.518;2023-11-21T01:58:55;5.44;98.34
71117;SHT31;58775;46.992;9.518;2023-11-21T02:00:57;5.43;98.47
71117;SHT31;58775;46.992;9.518;2023-11-21T02:02:58;5.51;98.25
71117;SHT31;58775;46.992;9.518;2023-11-21T02:04:59;5.34;98.41
71117;SHT31;58775;46.992;9.518;2023-11-21T02:07:02;5.37;98.80
71117;SHT31;58775;46.992;9.518;2023-11-21T02:09:06;5.43;98.73
71117;SHT31;58775;46.992;9.518;2023-11-21T02:11:07;5.46;98.26
71117;SHT31;58775;46.992;9.518;2023-11-21T02:13:08;5.47;98.00
71117;SHT31;58775;46.992;9.518;2023-11-21T02:15:10;5.39;98.31
71117;SHT31;58775;46.992;9.518;2023-11-21T02:17:15;5.30;98.95
71117;SHT31;58775;46.992;9.518;2023-11-21T02:19:19;5.27;99.45
71117;SHT31;58775;46.992;9.518;2023-11-21T02:21:24;5.22;99.58
71117;SHT31;58775;46.992;9.518;2023-11-21T02:23:26;5.24;99.69
71117;SHT31;58775;46.992;9.518;2023-11-21T02:25:30;5.30;99.24
71117;SHT31;58775;46.992;9.518;2023-11-21T02:27:32;5.33;98.89
71117;SHT31;58775;46.992;9.518;2023-11-21T02:29:33;5.39;98.48
71117;SHT31;58775;46.992;9.518;2023-11-21T02:31:34;5.39;98.50
71117;SHT31;58775;46.992;9.518;2023-11-21T02:33:35;5.37;98.33
71117;SHT31;58775;46.992;9.518;2023-11-21T02:35:38;5.39;98.56
71117;SHT31;58775;46.992;9.518;2023-11-21T02:37:45;5.42;98.31
71117;SHT31;58775;46.992;9.518;2023-11-21T02:39:46;5.37;97.78
71117;SHT31;58775;46.992;9.518;2023-11-21T02:41:47;5.32;97.92
71117;SHT31;58775;46.992;9.518;2023-11-21T02:43:48;5.15;98.98
71117;SHT31;58775;46.992;9.518;2023-11-21T02:45:50;5.15;98.71
71117;SHT31;58775;46.992;9.518;2023-11-21T02:47:50;5.05;99.57
71117;SHT31;58775;46.992;9.518;2023-11-21T02:49:53;4.97;99.99
71117;SHT31;58775;46.992;9.518;2023-11-21T02:51:54;5.03;99.99
71117;SHT31;58775;46.992;9.518;2023-11-21T02:53:56;5.09;99.99
71117;SHT31;58775;46.992;9.518;2023-11-21T02:56:02;5.16;99.43
71117;SHT31;58775;46.992;9.518;2023-11-21T02:58:03;5.13;98.71
71117;SHT31;58775;46.992;9.518;2023-11-21T03:00:04;5.20;98.87
71117;SHT31;58775;46.992;9.518;2023-11-21T03:02:08;5.19;98.87
71117;SHT31;58775;46.992;9.518;2023-11-21T03:04:09;5.16;98.28
71117;SHT31;58775;46.992;9.518;2023-11-21T03:06:10;5.09;98.34
71117;SHT31;58775;46.992;9.518;2023-11-21T03:08:10;5.09;99.03
71117;SHT31;58775;46.992;9.518;2023-11-21T03:10:11;5.15;98.72
71117;SHT31;58775;46.992;9.518;2023-11-21T03:12:12;5.13;98.70
71117;SHT31;58775;46.992;9.518;2023-11-21T03:14:13;5.11;97.77
71117;SHT31;58775;46.992;9.518;2023-11-21T03:16:15;5.09;98.57
71117;SHT31;58775;46.992;9.518;2023-11-21T03:18:16;5.12;98.35
71117;SHT31;58775;46.992;9.518;2023-11-21T03:20:16;5.03;98.54
71117;SHT31;58775;46.992;9.518;2023-11-21T03:22:17;5.02;98.63
71117;SHT31;58775;46.992;9.518;2023-11-21T03:24:19;4.99;98.45
71117;SHT31;58775;46.992;9.518;2023-11-21T03:26:20;5.02;98.23
71117;SHT31;58775;46.992;9.518;2023-11-21T03:28:21;4.81;97.30
71117;SHT31;58775;46.992;9.518;2023-11-21T03:30:22;4.64;99.81
71117;SHT31;58775;46.992;9.518;2023-11-21T03:32:23;4.64;99.99
71117;SHT31;58775;46.992;9.518;2023-11-21T03:34:27;4.68;99.72
71117;SHT31;58775;46.992;9.518;2023-11-21T03:36:29;4.68;99.41
71117;SHT31;58775;46.992;9.518;2023-11-21T03:38:30;4.72;99.26
71117;SHT31;58775;46.992;9.518;2023-11-21T03:40:31;4.76;98.96
71117;SHT31;58775;46.992;9.518;2023-11-21T03:42:32;4.88;98.80
71117;SHT31;58775;46.992;9.518;2023-11-21T03:44:33;4.93;98.87
71117;SHT31;58775;46.992;9.518;2023-11-21T03:46:34;4.91;98.89
71117;SHT31;58775;46.992;9.518;2023-11-21T03:48:34;4.96;99.31
71117;SHT31;58775;46.992;9.518;2023-11-21T03:50:35;4.99;99.21
71117;SHT31;58775;46.992;9.518;2023-11-21T03:52:37;5.02;99.40
71117;SHT31;58775;46.992;9.518;2023-11-21T03:54:38;5.08;99.52
71117;SHT31;58775;46.992;9.518;2023-11-21T03:56:40;5.12;99.54
71117;SHT31;58775;46.992;9.518;2023-11-21T03:58:41;5.18;99.59
71117;SHT31;58775;46.992;9.518;2023-11-21T04:00:42;5.22;99.27
71117;SHT31;58775;46.992;9.518;2023-11-21T04:02:43;5.27;98.97
71117;SHT31;58775;46.992;9.518;2023-11-21T04:04:43;5.30;99.04
71117;SHT31;58775;46.992;9.518;2023-11-21T04:06:44;5.26;99.34
71117;SHT31;58775;46.992;9.518;2023-11-21T04:08:45;5.26;99.99
71117;SHT31;58775;46.992;9.518;2023-11-21T04:10:46;5.33;99.87
71117;SHT31;58775;46.992;9.518;2023-11-21T04:12:47;5.37;99.95
71117;SHT31;58775;46.992;9.518;2023-11-21T04:14:49;5.36;99.99
71117;SHT31;58775;46.992;9.518;2023-11-21T04:16:49;5.42;99.99
71117;SHT31;58775;46.992;9.518;2023-11-21T04:18:50;5.42;99.99
71117;SHT31;58775;46.992;9.518;2023-11-21T04:20:51;5.40;99.99
71117;SHT31;58775;46.992;9.518;2023-11-21T04:22:52;5.44;99.99
71117;SHT31;58775;46.992;9.518;2023-11-21T04:24:53;5.51;99.99
71117;SHT31;58775;46.992;9.518;2023-11-21T04:26:54;5.61;99.87
71117;SHT31;58775;46.992;9.518;2023-11-21T04:28:55;5.61;99.73
71117;SHT31;58775;46.992;9.518;2023-11-21T04:30:56;5.67;99.43
71117;SHT31;58775;46.992;9.518;2023-11-21T04:32:57;5.73;99.40
71117;SHT31;58775;46.992;9.518;2023-11-21T04:34:58;5.74;99.01
71117;SHT31;58775;46.992;9.518;2023-11-21T04:36:58;5.75;99.05
71117;SHT31;58775;46.992;9.518;2023-11-21T04:39:00;5.71;98.54
71117;SHT31;58775;46.992;9.518;2023-11-21T04:41:01;5.64;98.54
71117;SHT31;58775;46.992;9.518;2023-11-21T04:43:02;5.60;98.34
71117;SHT31;58775;46.992;9.518;2023-11-21T04:45:05;5.60;98.55
71117;SHT31;58775;46.992;9.518;2023-11-21T04:47:09;5.63;98.15
71117;SHT31;58775;46.992;9.518;2023-11-21T04:49:10;5.64;98.58
71117;SHT31;58775;46.992;9.518;2023-11-21T04:51:11;5.64;98.24
71117;SHT31;58775;46.992;9.518;2023-11-21T04:53:13;5.70;98.47
71117;SHT31;58775;46.992;9.518;2023-11-21T04:55:15;5.65;98.28
71117;SHT31;58775;46.992;9.518;2023-11-21T04:57:15;5.57;98.86
71117;SHT31;58775;46.992;9.518;2023-11-21T04:59:18;5.65;98.98
71117;SHT31;58775;46.992;9.518;2023-11-21T05:01:19;5.58;99.11
71117;SHT31;58775;46.992;9.518;2023-11-21T05:03:20;5.57;99.04
71117;SHT31;58775;46.992;9.518;2023-11-21T05:05:21;5.54;99.89
71117;SHT31;58775;46.992;9.518;2023-11-21T05:07:23;5.65;99.99
71117;SHT31;58775;46.992;9.518;2023-11-21T05:09:23;5.64;99.99
71117;SHT31;58775;46.992;9.518;2023-11-21T05:11:26;5.68;99.99
71117;SHT31;58775;46.992;9.518;2023-11-21T05:13:26;5.74;99.99
71117;SHT31;58775;46.992;9.518;2023-11-21T05:15:27;5.79;99.99
71117;SHT31;58775;46.992;9.518;2023-11-21T05:17:28;5.88;99.99
71117;SHT31;58775;46.992;9.518;2023-11-21T05:19:29;5.88;99.99
71117;SHT31;58775;46.992;9.518;2023-11-21T05:21:30;5.98;99.90
71117;SHT31;58775;46.992;9.518;2023-11-21T05:23:34;6.02;99.82
71117;SHT31;58775;46.992;9.518;2023-11-21T05:25:35;6.05;99.62
71117;SHT31;58775;46.992;9.518;2023-11-21T05:27:36;6.09;99.38
71117;SHT31;58775;46.992;9.518;2023-11-21T05:29:37;6.09;98.80
71117;SHT31;58775;46.992;9.518;2023-11-21T05:31:38;5.99;98.88
71117;SHT31;58775;46.992;9.518;2023-11-21T05:33:39;5.98;99.31
71117;SHT31;58775;46.992;9.518;2023-11-21T05:35:39;6.01;99.32
71117;SHT31;58775;46.992;9.518;2023-11-21T05:37:41;6.09;98.95
71117;SHT31;58775;46.992;9.518;2023-11-21T05:39:42;6.12;98.63
71117;SHT31;58775;46.992;9.518;2023-11-21T05:41:43;6.12;98.01
71117;SHT31;58775;46.992;9.518;2023-11-21T05:43:44;6.05;98.43
71117;SHT31;58775;46.992;9.518;2023-11-21T05:45:44;6.04;99.18
71117;SHT31;58775;46.992;9.518;2023-11-21T05:47:46;6.08;99.10
71117;SHT31;58775;46.992;9.518;2023-11-21T05:49:47;6.06;99.10
71117;SHT31;58775;46.992;9.518;2023-11-21T05:51:50;6.06;99.21
71117;SHT31;58775;46.992;9.518;2023-11-21T05:53:54;6.14;98.89
71117;SHT31;58775;46.992;9.518;2023-11-21T05:55:55;6.16;98.60
71117;SHT31;58775;46.992;9.518;2023-11-21T05:57:56;6.11;98.97
71117;SHT31;58775;46.992;9.518;2023-11-21T05:59:56;6.14;98.73
71117;SHT31;58775;46.992;9.518;2023-11-21T06:01:57;6.08;98.94
71117;SHT31;58775;46.992;9.518;2023-11-21T06:03:59;6.09;98.97
71117;SHT31;58775;46.992;9.518;2023-11-21T06:06:00;6.11;98.95
71117;SHT31;58775;46.992;9.518;2023-11-21T06:08:01;6.05;99.00
71117;SHT31;58775;46.992;9.518;2023-11-21T06:10:03;5.98;99.38
71117;SHT31;58775;46.992;9.518;2023-11-21T06:12:07;6.01;99.63
71117;SHT31;58775;46.992;9.518;2023-11-21T06:14:08;5.99;99.72
71117;SHT31;58775;46.992;9.518;2023-11-21T06:16:10;6.06;99.50
71117;SHT31;58775;46.992;9.518;2023-11-21T06:18:11;6.04;98.55
71117;SHT31;58775;46.992;9.518;2023-11-21T06:20:12;5.99;99.47
71117;SHT31;58775;46.992;9.518;2023-11-21T06:22:15;6.04;99.40
71117;SHT31;58775;46.992;9.518;2023-11-21T06:24:16;6.05;99.02
71117;SHT31;58775;46.992;9.518;2023-11-21T06:26:17;6.02;98.91
71117;SHT31;58775;46.992;9.518;2023-11-21T06:28:19;5.99;99.20
71117;SHT31;58775;46.992;9.518;2023-11-21T06:30:20;6.01;99.28
71117;SHT31;58775;46.992;9.518;2023-11-21T06:32:21;6.01;99.17
71117;SHT31;58775;46.992;9.518;2023-11-21T06:34:23;6.04;99.30
71117;SHT31;58775;46.992;9.518;2023-11-21T06:36:24;6.08;99.12
71117;SHT31;58775;46.992;9.518;2023-11-21T06:38:24;6.14;98.72
71117;SHT31;58775;46.992;9.518;2023-11-21T06:40:28;5.97;99.15
71117;SHT31;58775;46.992;9.518;2023-11-21T06:42:30;5.87;99.99
71117;SHT31;58775;46.992;9.518;2023-11-21T06:44:31;5.79;99.99
71117;SHT31;58775;46.992;9.518;2023-11-21T06:46:34;5.74;99.99
71117;SHT31;58775;46.992;9.518;2023-11-21T06:48:34;5.87;99.99
71117;SHT31;58775;46.992;9.518;2023-11-21T06:50:35;5.95;99.99
71117;SHT31;58775;46.992;9.518;2023-11-21T06:52:37;6.02;99.99
71117;SHT31;58775;46.992;9.518;2023-11-21T06:54:37;6.09;99.99
71117;SHT31;58775;46.992;9.518;2023-11-21T06:56:38;6.16;99.99
71117;SHT31;58775;46.992;9.518;2023-11-21T06:58:39;6.18;99.71
71117;SHT31;58775;46.992;9.518;2023-11-21T07:00:41;6.25;99.63
71117;SHT31;58775;46.992;9.518;2023-11-21T07:02:46;6.22;99.32
71117;SHT31;58775;46.992;9.518;2023-11-21T07:04:48;6.29;99.21
71117;SHT31;58775;46.992;9.518;2023-11-21T07:06:48;6.29;99.01
71117;SHT31;58775;46.992;9.518;2023-11-21T07:08:49;6.28;98.95
71117;SHT31;58775;46.992;9.518;2023-11-21T07:10:50;6.30;99.37
71117;SHT31;58775;46.992;9.518;2023-11-21T07:12:51;6.30;99.42
71117;SHT31;58775;46.992;9.518;2023-11-21T07:14:51;6.35;99.06
71117;SHT31;58775;46.992;9.518;2023-11-21T07:16:52;6.43;99.23
71117;SHT31;58775;46.992;9.518;2023-11-21T07:18:53;6.37;98.86
71117;SHT31;58775;46.992;9.518;2023-11-21T07:20:55;6.39;98.99
71117;SHT31;58775;46.992;9.518;2023-11-21T07:22:56;6.49;99.15
71117;SHT31;58775;46.992;9.518;2023-11-21T07:24:58;6.42;99.14
71117;SHT31;58775;46.992;9.518;2023-11-21T07:26:59;6.40;99.35
71117;SHT31;58775;46.992;9.518;2023-11-21T07:29:03;6.45;99.10
71117;SHT31;58775;46.992;9.518;2023-11-21T07:31:04;6.37;98.98
71117;SHT31;58775;46.992;9.518;2023-11-21T07:33:05;6.40;99.43
71117;SHT31;58775;46.992;9.518;2023-11-21T07:35:07;6.45;99.43
71117;SHT31;58775;46.992;9.518;2023-11-21T07:37:08;6.50;99.18
71117;SHT31;58775;46.992;9.518;2023-11-21T07:39:09;6.52;99.11
71117;SHT31;58775;46.992;9.518;2023-11-21T07:41:11;6.60;99.13
71117;SHT31;58775;46.992;9.518;2023-11-21T07:43:16;6.67;98.97
71117;SHT31;58775;46.992;9.518;2023-11-21T07:45:17;6.69;99.37
71117;SHT31;58775;46.992;9.518;2023-11-21T07:47:19;6.76;99.37
71117;SHT31;58775;46.992;9.518;2023-11-21T07:49:20;6.88;99.35
71117;SHT31;58775;46.992;9.518;2023-11-21T07:51:21;6.87;98.50
71117;SHT31;58775;46.992;9.518;2023-11-21T07:53:27;6.96;99.28
71117;SHT31;58775;46.992;9.518;2023-11-21T07:55:30;6.87;98.88
71117;SHT31;58775;46.992;9.518;2023-11-21T07:57:32;6.83;99.78
71117;SHT31;58775;46.992;9.518;2023-11-21T07:59:33;6.91;99.99
71117;SHT31;58775;46.992;9.518;2023-11-21T08:01:35;7.05;99.69
71117;SHT31;58775;46.992;9.518;2023-11-21T08:03:36;7.07;99.04
71117;SHT31;58775;46.992;9.518;2023-11-21T08:05:37;7.18;99.02
71117;SHT31;58775;46.992;9.518;2023-11-21T08:07:41;7.34;98.62
71117;SHT31;58775;46.992;9.518;2023-11-21T08:09:42;7.38;98.00
71117;SHT31;58775;46.992;9.518;2023-11-21T08:12:03;7.41;97.72
71117;SHT31;58775;46.992;9.518;2023-11-21T08:14:05;7.48;98.17
71117;SHT31;58775;46.992;9.518;2023-11-21T08:16:06;7.56;97.25
71117;SHT31;58775;46.992;9.518;2023-11-21T08:18:07;7.68;97.00
71117;SHT31;58775;46.992;9.518;2023-11-21T08:20:09;7.75;97.39
71117;SHT31;58775;46.992;9.518;2023-11-21T08:22:11;7.83;96.45
71117;SHT31;58775;46.992;9.518;2023-11-21T08:24:12;7.94;96.92
71117;SHT31;58775;46.992;9.518;2023-11-21T08:26:16;7.89;96.39
71117;SHT31;58775;46.992;9.518;2023-11-21T08:28:17;8.01;95.51
71117;SHT31;58775;46.992;9.518;2023-11-21T08:30:21;8.09;95.81
71117;SHT31;58775;46.992;9.518;2023-11-21T08:32:24;8.31;95.76
71117;SHT31;58775;46.992;9.518;2023-11-21T08:34:25;8.47;95.46
71117;SHT31;58775;46.992;9.518;2023-11-21T08:36:26;8.65;94.47
71117;SHT31;58775;46.992;9.518;2023-11-21T08:38:27;8.84;94.14
71117;SHT31;58775;46.992;9.518;2023-11-21T08:40:29;8.78;93.19
71117;SHT31;58775;46.992;9.518;2023-11-21T08:42:30;8.92;94.03
71117;SHT31;58775;46.992;9.518;2023-11-21T08:44:31;8.89;93.36
71117;SHT31;58775;46.992;9.518;2023-11-21T08:46:32;8.91;93.29
71117;SHT31;58775;46.992;9.518;2023-11-21T08:48:36;8.72;92.95
71117;SHT31;58775;46.992;9.518;2023-11-21T08:50:37;8.65;92.78
71117;SHT31;58775;46.992;9.518;2023-11-21T08:52:38;8.55;92.32
71117;SHT31;58775;46.992;9.518;2023-11-21T08:54:39;8.52;92.43
71117;SHT31;58775;46.992;9.518;2023-11-21T08:56:40;8.27;91.52
71117;SHT31;58775;46.992;9.518;2023-11-21T08:58:40;8.26;92.06
71117;SHT31;58775;46.992;9.518;2023-11-21T09:00:42;8.24;92.71
71117;SHT31;58775;46.992;9.518;2023-11-21T09:02:43;8.26;91.95
71117;SHT31;58775;46.992;9.518;2023-11-21T09:04:44;8.27;91.22
71117;SHT31;58775;46.992;9.518;2023-11-21T09:06:45;8.21;91.58
71117;SHT31;58775;46.992;9.518;2023-11-21T09:08:46;8.20;91.78
71117;SHT31;58775;46.992;9.518;2023-11-21T09:10:47;8.16;92.40
71117;SHT31;58775;46.992;9.518;2023-11-21T09:12:48;8.13;92.21
71117;SHT31;58775;46.992;9.518;2023-11-21T09:14:49;8.00;93.11
71117;SHT31;58775;46.992;9.518;2023-11-21T09:16:50;8.04;93.02
71117;SHT31;58775;46.992;9.518;2023-11-21T09:18:51;8.07;93.26
71117;SHT31;58775;46.992;9.518;2023-11-21T09:20:52;7.96;93.96
71117;SHT31;58775;46.992;9.518;2023-11-21T09:22:53;8.03;93.90
71117;SHT31;58775;46.992;9.518;2023-11-21T09:25:00;8.04;94.08
71117;SHT31;58775;46.992;9.518;2023-11-21T09:27:06;8.04;93.31
71117;SHT31;58775;46.992;9.518;2023-11-21T09:29:07;8.04;93.27
71117;SHT31;58775;46.992;9.518;2023-11-21T09:31:08;7.94;93.91
71117;SHT31;58775;46.992;9.518;2023-11-21T09:33:10;7.76;93.60
71117;SHT31;58775;46.992;9.518;2023-11-21T09:35:11;7.78;94.02
71117;SHT31;58775;46.992;9.518;2023-11-21T09:37:14;7.79;93.91
71117;SHT31;58775;46.992;9.518;2023-11-21T09:39:15;7.68;93.96
71117;SHT31;58775;46.992;9.518;2023-11-21T09:41:22;7.65;94.18
71117;SHT31;58775;46.992;9.518;2023-11-21T09:43:25;7.80;93.81
71117;SHT31;58775;46.992;9.518;2023-11-21T09:45:29;7.75;93.24
71117;SHT31;58775;46.992;9.518;2023-11-21T09:47:35;7.61;93.91
71117;SHT31;58775;46.992;9.518;2023-11-21T09:49:38;7.48;93.93
71117;SHT31;58775;46.992;9.518;2023-11-21T09:51:43;7.56;93.94
71117;SHT31;58775;46.992;9.518;2023-11-21T09:53:46;7.56;93.53
71117;SHT31;58775;46.992;9.518;2023-11-21T09:55:51;7.68;93.84
71117;SHT31;58775;46.992;9.518;2023-11-21T09:57:53;7.75;93.77
71117;SHT31;58775;46.992;9.518;2023-11-21T09:59:55;7.85;93.86
71117;SHT31;58775;46.992;9.518;2023-11-21T10:02:07;7.83;93.99
71117;SHT31;58775;46.992;9.518;2023-11-21T10:04:11;8.06;92.84
71117;SHT31;58775;46.992;9.518;2023-11-21T10:09:01;7.82;94.91
71117;SHT31;58775;46.992;9.518;2023-11-21T10:11:05;7.93;93.80
71117;SHT31;58775;46.992;9.518;2023-11-21T10:13:11;8.11;93.53
71117;SHT31;58775;46.992;9.518;2023-11-21T10:15:13;8.21;93.12
71117;SHT31;58775;46.992;9.518;2023-11-21T10:17:17;8.13;93.21
71117;SHT31;58775;46.992;9.518;2023-11-21T10:19:20;8.13;94.95
71117;SHT31;58775;46.992;9.518;2023-11-21T10:21:21;8.36;93.07
71117;SHT31;58775;46.992;9.518;2023-11-21T10:23:23;8.50;92.57
71117;SHT31;58775;46.992;9.518;2023-11-21T10:25:43;8.30;92.55
71117;SHT31;58775;46.992;9.518;2023-11-21T10:27:47;8.37;92.97
71117;SHT31;58775;46.992;9.518;2023-11-21T10:29:51;8.33;92.77
71117;SHT31;58775;46.992;9.518;2023-11-21T10:31:52;8.21;94.08
71117;SHT31;58775;46.992;9.518;2023-11-21T10:36:13;8.30;92.78
71117;SHT31;58775;46.992;9.518;2023-11-21T10:38:14;8.31;92.11
71117;SHT31;58775;46.992;9.518;2023-11-21T10:40:15;8.23;93.85
71117;SHT31;58775;46.992;9.518;2023-11-21T10:42:17;8.41;92.37
71117;SHT31;58775;46.992;9.518;2023-11-21T10:44:21;8.50;91.35
71117;SHT31;58775;46.992;9.518;2023-11-21T10:46:23;8.47;91.46
71117;SHT31;58775;46.992;9.518;2023-11-21T10:48:26;8.69;91.57
71117;SHT31;58775;46.992;9.518;2023-11-21T10:50:27;8.74;91.25
71117;SHT31;58775;46.992;9.518;2023-11-21T10:52:28;8.75;91.81
71117;SHT31;58775;46.992;9.518;2023-11-21T10:54:29;8.71;92.01
71117;SHT31;58775;46.992;9.518;2023-11-21T10:56:30;8.99;89.87
71117;SHT31;58775;46.992;9.518;2023-11-21T10:58:37;9.11;88.55
71117;SHT31;58775;46.992;9.518;2023-11-21T11:00:39;9.18;88.47
71117;SHT31;58775;46.992;9.518;2023-11-21T11:02:41;9.15;89.01
71117;SHT31;58775;46.992;9.518;2023-11-21T11:04:43;9.16;88.96
71117;SHT31;58775;46.992;9.518;2023-11-21T11:06:54;9.23;88.87
71117;SHT31;58775;46.992;9.518;2023-11-21T11:08:57;9.29;88.50
71117;SHT31;58775;46.992;9.518;2023-11-21T11:10:58;9.30;88.25
71117;SHT31;58775;46.992;9.518;2023-11-21T11:12:59;9.13;87.88
71117;SHT31;58775;46.992;9.518;2023-11-21T11:15:01;9.32;88.75
71117;SHT31;58775;46.992;9.518;2023-11-21T11:17:04;9.23;89.23
71117;SHT31;58775;46.992;9.518;2023-11-21T11:19:09;9.20;89.88
71117;SHT31;58775;46.992;9.518;2023-11-21T11:24:05;9.08;90.13
71117;SHT31;58775;46.992;9.518;2023-11-21T11:28:31;8.86;91.07
71117;SHT31;58775;46.992;9.518;2023-11-21T11:30:49;8.57;93.29
71117;SHT31;58775;46.992;9.518;2023-11-21T11:33:10;8.74;92.70
71117;SHT31;58775;46.992;9.518;2023-11-21T11:35:19;8.76;92.27
71117;SHT31;58775;46.992;9.518;2023-11-21T11:37:24;8.37;94.09
71117;SHT31;58775;46.992;9.518;2023-11-21T11:39:29;8.13;95.29
71117;SHT31;58775;46.992;9.518;2023-11-21T11:41:33;8.04;95.92
71117;SHT31;58775;46.992;9.518;2023-11-21T11:43:35;8.16;95.71
71117;SHT31;58775;46.992;9.518;2023-11-21T11:45:46;8.40;93.52
71117;SHT31;58775;46.992;9.518;2023-11-21T11:47:56;8.54;92.80
71117;SHT31;58775;46.992;9.518;2023-11-21T11:50:03;8.24;94.57
71117;SHT31;58775;46.992;9.518;2023-11-21T11:52:41;8.26;95.87
71117;SHT31;58775;46.992;9.518;2023-11-21T11:54:43;8.10;96.58
71117;SHT31;58775;46.992;9.518;2023-11-21T11:56:45;8.34;95.83
71117;SHT31;58775;46.992;9.518;2023-11-21T11:58:48;8.34;94.44
71117;SHT31;58775;46.992;9.518;2023-11-21T12:00:49;8.31;95.02
71117;SHT31;58775;46.992;9.518;2023-11-21T12:02:54;8.36;95.53
71117;SHT31;58775;46.992;9.518;2023-11-21T12:04:57;8.29;95.38
71117;SHT31;58775;46.992;9.518;2023-11-21T12:07:01;8.33;96.02
71117;SHT31;58775;46.992;9.518;2023-11-21T12:09:03;8.47;94.99
71117;SHT31;58775;46.992;9.518;2023-11-21T12:11:09;8.44;94.51
71117;SHT31;58775;46.992;9.518;2023-11-21T12:13:14;8.43;94.73
71117;SHT31;58775;46.992;9.518;2023-11-21T12:15:16;8.38;94.76
71117;SHT31;58775;46.992;9.518;2023-11-21T12:17:17;8.40;95.24
71117;SHT31;58775;46.992;9.518;2023-11-21T12:19:18;8.54;95.64
71117;SHT31;58775;46.992;9.518;2023-11-21T12:21:20;8.75;94.31
71117;SHT31;58775;46.992;9.518;2023-11-21T12:23:23;8.95;94.29
71117;SHT31;58775;46.992;9.518;2023-11-21T12:25:25;8.88;95.16
71117;SHT31;58775;46.992;9.518;2023-11-21T12:27:29;8.84;95.21
71117;SHT31;58775;46.992;9.518;2023-11-21T12:29:30;8.89;94.80
71117;SHT31;58775;46.992;9.518;2023-11-21T12:31:32;8.92;94.43
71117;SHT31;58775;46.992;9.518;2023-11-21T12:33:35;9.15;93.11
71117;SHT31;58775;46.992;9.518;2023-11-21T12:35:36;9.22;93.08
71117;SHT31;58775;46.992;9.518;2023-11-21T12:37:38;9.20;92.71
71117;SHT31;58775;46.992;9.518;2023-11-21T12:39:39;9.18;93.19
71117;SHT31;58775;46.992;9.518;2023-11-21T12:41:40;9.16;93.25
71117;SHT31;58775;46.992;9.518;2023-11-21T12:43:41;9.23;93.51
71117;SHT31;58775;46.992;9.518;2023-11-21T12:45:42;9.33;91.67
71117;SHT31;58775;46.992;9.518;2023-11-21T12:47:44;9.46;89.93
71117;SHT31;58775;46.992;9.518;2023-11-21T12:49:45;9.22;87.47
71117;SHT31;58775;46.992;9.518;2023-11-21T12:51:46;9.39;88.40
71117;SHT31;58775;46.992;9.518;2023-11-21T12:53:47;9.27;87.51
71117;SHT31;58775;46.992;9.518;2023-11-21T12:55:48;9.25;87.65
71117;SHT31;58775;46.992;9.518;2023-11-21T12:57:53;9.48;87.91
71117;SHT31;58775;46.992;9.518;2023-11-21T12:59:58;9.63;87.03
71117;SHT31;58775;46.992;9.518;2023-11-21T13:01:59;9.73;86.01
71117;SHT31;58775;46.992;9.518;2023-11-21T13:04:07;9.95;86.32
71117;SHT31;58775;46.992;9.518;2023-11-21T13:06:11;10.02;84.77
71117;SHT31;58775;46.992;9.518;2023-11-21T13:08:17;10.08;84.52
71117;SHT31;58775;46.992;9.518;2023-11-21T13:10:24;9.95;83.90
71117;SHT31;58775;46.992;9.518;2023-11-21T13:12:27;9.93;84.53
71117;SHT31;58775;46.992;9.518;2023-11-21T13:14:29;9.77;84.32